sensor_id;sensor_type;location;lat;lon;timestamp;P1;durP1;ratioP1;P2;durP2;ratioP2
2792;SDS011;1404;49.650;8.574;2022-09-21T00:00:28;2.70;;;1.53;;
2792;SDS011;1404;49.650;8.574;2022-09-21T00:02:55;3.10;;;1.40;;
2792;SDS011;1404;49.650;8.574;2022-09-21T00:05:22;1.53;;;1.30;;
2792;SDS011;1404;49.650;8.574;2022-09-21T00:07:48;2.40;;;1.20;;
2792;SDS011;1404;49.650;8.574;2022-09-21T00:10:14;2.50;;;1.40;;
2792;SDS011;1404;49.650;8.574;2022-09-21T00:12:40;1.00;;;0.83;;
2792;SDS011;1404;49.650;8.574;2022-09-21T00:15:07;2.17;;;1.50;;
2792;SDS011;1404;49.650;8.574;2022-09-21T00:17:34;1.73;;;1.17;;
2792;SDS011;1404;49.650;8.574;2022-09-21T00:20:00;1.53;;;1.43;;
2792;SDS011;1404;49.650;8.574;2022-09-21T00:22:28;1.50;;;1.37;;
2792;SDS011;1404;49.650;8.574;2022-09-21T00:24:54;1.77;;;1.17;;
2792;SDS011;1404;49.650;8.574;2022-09-21T00:27:20;1.67;;;0.93;;
2792;SDS011;1404;49.650;8.574;2022-09-21T00:29:46;2.03;;;0.93;;
2792;SDS011;1404;49.650;8.574;2022-09-21T00:32:13;2.57;;;1.20;;
2792;SDS011;1404;49.650;8.574;2022-09-21T00:34:39;2.10;;;1.80;;
2792;SDS011;1404;49.650;8.574;2022-09-21T00:37:05;1.83;;;1.27;;
2792;SDS011;1404;49.650;8.574;2022-09-21T00:39:33;2.80;;;1.40;;
2792;SDS011;1404;49.650;8.574;2022-09-21T00:41:59;1.20;;;1.10;;
2792;SDS011;1404;49.650;8.574;2022-09-21T00:44:31;3.00;;;1.50;;
2792;SDS011;1404;49.650;8.574;2022-09-21T00:47:16;1.60;;;1.30;;
2792;SDS011;1404;49.650;8.574;2022-09-21T00:49:44;1.77;;;1.40;;
2792;SDS011;1404;49.650;8.574;2022-09-21T00:52:13;1.00;;;1.00;;
2792;SDS011;1404;49.650;8.574;2022-09-21T00:54:43;1.53;;;1.20;;
2792;SDS011;1404;49.650;8.574;2022-09-21T00:57:10;2.40;;;2.03;;
2792;SDS011;1404;49.650;8.574;2022-09-21T00:59:36;1.73;;;1.43;;
2792;SDS011;1404;49.650;8.574;2022-09-21T01:02:03;3.27;;;1.60;;
2792;SDS011;1404;49.650;8.574;2022-09-21T01:04:29;2.10;;;1.67;;
2792;SDS011;1404;49.650;8.574;2022-09-21T01:06:55;2.60;;;1.43;;
2792;SDS011;1404;49.650;8.574;2022-09-21T01:09:23;1.00;;;0.90;;
2792;SDS011;1404;49.650;8.574;2022-09-21T01:27:41;0.93;;;0.77;;
2792;SDS011;1404;49.650;8.574;2022-09-21T01:30:12;1.80;;;1.37;;
2792;SDS011;1404;49.650;8.574;2022-09-21T01:32:41;1.43;;;1.33;;
2792;SDS011;1404;49.650;8.574;2022-09-21T01:35:13;2.00;;;1.80;;
2792;SDS011;1404;49.650;8.574;2022-09-21T01:37:43;1.80;;;1.17;;
2792;SDS011;1404;49.650;8.574;2022-09-21T01:43:15;1.37;;;1.17;;
2792;SDS011;1404;49.650;8.574;2022-09-21T01:45:44;2.17;;;1.97;;
2792;SDS011;1404;49.650;8.574;2022-09-21T01:48:13;2.20;;;1.10;;
2792;SDS011;1404;49.650;8.574;2022-09-21T01:50:40;1.33;;;1.10;;
2792;SDS011;1404;49.650;8.574;2022-09-21T01:53:12;4.90;;;1.37;;
2792;SDS011;1404;49.650;8.574;2022-09-21T01:55:43;0.90;;;0.90;;
2792;SDS011;1404;49.650;8.574;2022-09-21T01:58:15;1.43;;;0.93;;
2792;SDS011;1404;49.650;8.574;2022-09-21T02:00:43;1.23;;;1.13;;
2792;SDS011;1404;49.650;8.574;2022-09-21T02:03:13;2.53;;;0.93;;
2792;SDS011;1404;49.650;8.574;2022-09-21T02:05:41;1.40;;;1.30;;
2792;SDS011;1404;49.650;8.574;2022-09-21T02:08:08;1.13;;;0.87;;
2792;SDS011;1404;49.650;8.574;2022-09-21T02:10:52;1.60;;;1.50;;
2792;SDS011;1404;49.650;8.574;2022-09-21T02:13:19;1.47;;;1.13;;
2792;SDS011;1404;49.650;8.574;2022-09-21T02:20:55;1.43;;;1.33;;
2792;SDS011;1404;49.650;8.574;2022-09-21T02:23:26;1.60;;;0.90;;
2792;SDS011;1404;49.650;8.574;2022-09-21T02:25:56;1.40;;;1.13;;
2792;SDS011;1404;49.650;8.574;2022-09-21T02:31:14;1.20;;;1.10;;
2792;SDS011;1404;49.650;8.574;2022-09-21T02:34:32;1.60;;;1.23;;
2792;SDS011;1404;49.650;8.574;2022-09-21T02:36:54;1.47;;;1.37;;
2792;SDS011;1404;49.650;8.574;2022-09-21T02:39:33;2.07;;;1.57;;
2792;SDS011;1404;49.650;8.574;2022-09-21T02:42:02;1.77;;;1.47;;
2792;SDS011;1404;49.650;8.574;2022-09-21T02:44:30;1.63;;;0.93;;
2792;SDS011;1404;49.650;8.574;2022-09-21T02:47:07;0.80;;;0.63;;
2792;SDS011;1404;49.650;8.574;2022-09-21T02:49:35;1.57;;;1.17;;
2792;SDS011;1404;49.650;8.574;2022-09-21T02:52:04;1.17;;;1.10;;
2792;SDS011;1404;49.650;8.574;2022-09-21T02:54:31;1.10;;;1.03;;
2792;SDS011;1404;49.650;8.574;2022-09-21T02:56:59;1.20;;;1.10;;
2792;SDS011;1404;49.650;8.574;2022-09-21T02:59:25;1.50;;;1.23;;
2792;SDS011;1404;49.650;8.574;2022-09-21T03:01:52;2.70;;;1.67;;
2792;SDS011;1404;49.650;8.574;2022-09-21T03:04:19;3.30;;;1.83;;
2792;SDS011;1404;49.650;8.574;2022-09-21T03:06:45;1.33;;;1.10;;
2792;SDS011;1404;49.650;8.574;2022-09-21T03:09:12;2.20;;;1.10;;
2792;SDS011;1404;49.650;8.574;2022-09-21T03:11:38;1.30;;;1.07;;
2792;SDS011;1404;49.650;8.574;2022-09-21T03:14:06;2.30;;;1.43;;
2792;SDS011;1404;49.650;8.574;2022-09-21T03:16:35;1.10;;;1.00;;
2792;SDS011;1404;49.650;8.574;2022-09-21T03:19:01;1.57;;;1.47;;
2792;SDS011;1404;49.650;8.574;2022-09-21T03:21:27;2.53;;;1.40;;
2792;SDS011;1404;49.650;8.574;2022-09-21T03:23:53;2.53;;;1.50;;
2792;SDS011;1404;49.650;8.574;2022-09-21T03:26:19;1.30;;;1.17;;
2792;SDS011;1404;49.650;8.574;2022-09-21T03:28:46;1.50;;;1.40;;
2792;SDS011;1404;49.650;8.574;2022-09-21T03:31:13;1.03;;;0.93;;
2792;SDS011;1404;49.650;8.574;2022-09-21T03:33:39;3.47;;;1.73;;
2792;SDS011;1404;49.650;8.574;2022-09-21T03:36:05;3.00;;;2.00;;
2792;SDS011;1404;49.650;8.574;2022-09-21T03:38:32;1.40;;;1.13;;
2792;SDS011;1404;49.650;8.574;2022-09-21T03:40:58;1.23;;;0.93;;
2792;SDS011;1404;49.650;8.574;2022-09-21T03:43:24;1.63;;;1.50;;
2792;SDS011;1404;49.650;8.574;2022-09-21T03:45:50;1.47;;;1.37;;
2792;SDS011;1404;49.650;8.574;2022-09-21T03:48:16;1.40;;;1.00;;
2792;SDS011;1404;49.650;8.574;2022-09-21T03:50:42;1.40;;;1.30;;
2792;SDS011;1404;49.650;8.574;2022-09-21T03:53:09;1.03;;;0.90;;
2792;SDS011;1404;49.650;8.574;2022-09-21T03:55:35;1.80;;;1.70;;
2792;SDS011;1404;49.650;8.574;2022-09-21T03:58:02;1.20;;;1.10;;
2792;SDS011;1404;49.650;8.574;2022-09-21T04:00:28;1.30;;;1.03;;
2792;SDS011;1404;49.650;8.574;2022-09-21T04:02:54;3.03;;;1.13;;
2792;SDS011;1404;49.650;8.574;2022-09-21T04:05:21;5.20;;;2.43;;
2792;SDS011;1404;49.650;8.574;2022-09-21T04:07:47;1.70;;;1.60;;
2792;SDS011;1404;49.650;8.574;2022-09-21T04:10:14;1.80;;;1.40;;
2792;SDS011;1404;49.650;8.574;2022-09-21T04:12:41;2.40;;;1.60;;
2792;SDS011;1404;49.650;8.574;2022-09-21T04:15:08;2.30;;;2.10;;
2792;SDS011;1404;49.650;8.574;2022-09-21T04:17:35;0.90;;;0.90;;
2792;SDS011;1404;49.650;8.574;2022-09-21T04:20:01;1.20;;;1.10;;
2792;SDS011;1404;49.650;8.574;2022-09-21T04:22:28;1.50;;;1.10;;
2792;SDS011;1404;49.650;8.574;2022-09-21T04:24:55;1.03;;;1.03;;
2792;SDS011;1404;49.650;8.574;2022-09-21T04:27:30;1.97;;;1.47;;
2792;SDS011;1404;49.650;8.574;2022-09-21T04:29:57;2.33;;;1.20;;
2792;SDS011;1404;49.650;8.574;2022-09-21T04:32:26;0.93;;;0.87;;
2792;SDS011;1404;49.650;8.574;2022-09-21T04:34:52;1.07;;;1.00;;
2792;SDS011;1404;49.650;8.574;2022-09-21T04:37:19;2.07;;;1.97;;
2792;SDS011;1404;49.650;8.574;2022-09-21T04:39:45;1.90;;;1.50;;
2792;SDS011;1404;49.650;8.574;2022-09-21T04:42:12;0.93;;;0.93;;
2792;SDS011;1404;49.650;8.574;2022-09-21T04:44:38;1.50;;;1.30;;
2792;SDS011;1404;49.650;8.574;2022-09-21T04:47:04;1.70;;;1.53;;
2792;SDS011;1404;49.650;8.574;2022-09-21T04:49:30;1.17;;;1.07;;
2792;SDS011;1404;49.650;8.574;2022-09-21T04:51:56;0.90;;;0.90;;
2792;SDS011;1404;49.650;8.574;2022-09-21T04:54:22;1.10;;;0.77;;
2792;SDS011;1404;49.650;8.574;2022-09-21T04:56:48;1.80;;;1.10;;
2792;SDS011;1404;49.650;8.574;2022-09-21T04:59:14;1.73;;;1.10;;
2792;SDS011;1404;49.650;8.574;2022-09-21T05:01:40;1.60;;;1.50;;
2792;SDS011;1404;49.650;8.574;2022-09-21T05:04:06;4.07;;;1.60;;
2792;SDS011;1404;49.650;8.574;2022-09-21T05:06:33;1.90;;;1.33;;
2792;SDS011;1404;49.650;8.574;2022-09-21T05:08:59;2.10;;;1.60;;
2792;SDS011;1404;49.650;8.574;2022-09-21T05:11:44;1.33;;;1.23;;
2792;SDS011;1404;49.650;8.574;2022-09-21T05:14:10;1.27;;;0.97;;
2792;SDS011;1404;49.650;8.574;2022-09-21T05:16:36;1.03;;;0.90;;
2792;SDS011;1404;49.650;8.574;2022-09-21T05:19:03;1.27;;;1.17;;
2792;SDS011;1404;49.650;8.574;2022-09-21T05:21:29;2.23;;;1.83;;
2792;SDS011;1404;49.650;8.574;2022-09-21T05:23:56;3.67;;;1.47;;
2792;SDS011;1404;49.650;8.574;2022-09-21T05:26:22;6.73;;;1.90;;
2792;SDS011;1404;49.650;8.574;2022-09-21T05:28:48;2.10;;;1.93;;
2792;SDS011;1404;49.650;8.574;2022-09-21T05:31:29;1.87;;;1.40;;
2792;SDS011;1404;49.650;8.574;2022-09-21T05:34:04;2.50;;;2.03;;
2792;SDS011;1404;49.650;8.574;2022-09-21T05:36:35;1.07;;;0.97;;
2792;SDS011;1404;49.650;8.574;2022-09-21T05:39:04;5.07;;;1.33;;
2792;SDS011;1404;49.650;8.574;2022-09-21T05:41:31;2.27;;;1.00;;
2792;SDS011;1404;49.650;8.574;2022-09-21T05:43:57;1.83;;;1.63;;
2792;SDS011;1404;49.650;8.574;2022-09-21T05:46:40;1.30;;;1.20;;
2792;SDS011;1404;49.650;8.574;2022-09-21T05:51:52;1.50;;;1.40;;
2792;SDS011;1404;49.650;8.574;2022-09-21T05:56:51;0.87;;;0.87;;
2792;SDS011;1404;49.650;8.574;2022-09-21T06:02:05;2.00;;;1.60;;
2792;SDS011;1404;49.650;8.574;2022-09-21T06:04:33;2.20;;;1.77;;
2792;SDS011;1404;49.650;8.574;2022-09-21T06:06:59;6.70;;;2.50;;
2792;SDS011;1404;49.650;8.574;2022-09-21T06:09:25;2.50;;;2.07;;
2792;SDS011;1404;49.650;8.574;2022-09-21T06:11:51;1.90;;;1.70;;
2792;SDS011;1404;49.650;8.574;2022-09-21T06:14:18;1.73;;;1.60;;
2792;SDS011;1404;49.650;8.574;2022-09-21T06:16:48;1.80;;;1.70;;
2792;SDS011;1404;49.650;8.574;2022-09-21T06:19:14;2.23;;;1.93;;
2792;SDS011;1404;49.650;8.574;2022-09-21T06:21:40;2.60;;;1.83;;
2792;SDS011;1404;49.650;8.574;2022-09-21T06:24:06;1.93;;;1.00;;
2792;SDS011;1404;49.650;8.574;2022-09-21T06:26:33;2.70;;;1.70;;
2792;SDS011;1404;49.650;8.574;2022-09-21T06:28:59;2.63;;;2.10;;
2792;SDS011;1404;49.650;8.574;2022-09-21T06:31:25;2.07;;;1.60;;
2792;SDS011;1404;49.650;8.574;2022-09-21T06:33:52;5.30;;;1.87;;
2792;SDS011;1404;49.650;8.574;2022-09-21T06:36:18;2.40;;;2.07;;
2792;SDS011;1404;49.650;8.574;2022-09-21T06:38:44;1.77;;;1.60;;
2792;SDS011;1404;49.650;8.574;2022-09-21T06:41:10;3.57;;;2.50;;
2792;SDS011;1404;49.650;8.574;2022-09-21T06:43:36;6.10;;;2.40;;
2792;SDS011;1404;49.650;8.574;2022-09-21T06:46:02;1.70;;;1.60;;
2792;SDS011;1404;49.650;8.574;2022-09-21T06:48:28;3.23;;;2.00;;
2792;SDS011;1404;49.650;8.574;2022-09-21T06:51:02;1.43;;;1.10;;
2792;SDS011;1404;49.650;8.574;2022-09-21T06:53:30;1.40;;;1.30;;
2792;SDS011;1404;49.650;8.574;2022-09-21T06:56:03;2.77;;;2.50;;
2792;SDS011;1404;49.650;8.574;2022-09-21T06:58:30;5.80;;;2.47;;
2792;SDS011;1404;49.650;8.574;2022-09-21T07:01:03;2.10;;;1.90;;
2792;SDS011;1404;49.650;8.574;2022-09-21T07:03:29;2.70;;;1.90;;
2792;SDS011;1404;49.650;8.574;2022-09-21T07:05:55;2.57;;;1.37;;
2792;SDS011;1404;49.650;8.574;2022-09-21T07:08:21;1.43;;;1.23;;
2792;SDS011;1404;49.650;8.574;2022-09-21T07:10:48;3.57;;;1.77;;
2792;SDS011;1404;49.650;8.574;2022-09-21T07:13:14;2.40;;;2.07;;
2792;SDS011;1404;49.650;8.574;2022-09-21T07:15:41;1.90;;;1.70;;
2792;SDS011;1404;49.650;8.574;2022-09-21T07:18:11;1.60;;;1.50;;
2792;SDS011;1404;49.650;8.574;2022-09-21T07:20:37;3.43;;;2.40;;
2792;SDS011;1404;49.650;8.574;2022-09-21T07:23:11;2.43;;;1.37;;
2792;SDS011;1404;49.650;8.574;2022-09-21T07:25:39;1.67;;;1.10;;
2792;SDS011;1404;49.650;8.574;2022-09-21T07:28:05;1.40;;;1.30;;
2792;SDS011;1404;49.650;8.574;2022-09-21T07:30:31;3.60;;;2.00;;
2792;SDS011;1404;49.650;8.574;2022-09-21T07:32:57;2.53;;;1.67;;
2792;SDS011;1404;49.650;8.574;2022-09-21T07:35:23;2.10;;;1.60;;
2792;SDS011;1404;49.650;8.574;2022-09-21T07:37:49;3.30;;;2.30;;
2792;SDS011;1404;49.650;8.574;2022-09-21T07:40:15;1.73;;;1.10;;
2792;SDS011;1404;49.650;8.574;2022-09-21T07:42:41;2.10;;;1.87;;
2792;SDS011;1404;49.650;8.574;2022-09-21T07:45:08;2.17;;;1.77;;
2792;SDS011;1404;49.650;8.574;2022-09-21T07:47:35;2.00;;;1.60;;
2792;SDS011;1404;49.650;8.574;2022-09-21T07:50:01;2.23;;;1.90;;
2792;SDS011;1404;49.650;8.574;2022-09-21T07:52:27;4.20;;;2.70;;
2792;SDS011;1404;49.650;8.574;2022-09-21T07:54:53;1.73;;;1.40;;
2792;SDS011;1404;49.650;8.574;2022-09-21T07:57:19;2.00;;;1.63;;
2792;SDS011;1404;49.650;8.574;2022-09-21T08:00:04;2.07;;;1.90;;
2792;SDS011;1404;49.650;8.574;2022-09-21T08:02:30;2.80;;;1.80;;
2792;SDS011;1404;49.650;8.574;2022-09-21T08:04:56;2.53;;;1.70;;
2792;SDS011;1404;49.650;8.574;2022-09-21T08:07:22;4.33;;;2.40;;
2792;SDS011;1404;49.650;8.574;2022-09-21T08:09:48;3.10;;;1.70;;
2792;SDS011;1404;49.650;8.574;2022-09-21T08:12:15;5.77;;;2.10;;
2792;SDS011;1404;49.650;8.574;2022-09-21T08:14:42;3.43;;;2.10;;
2792;SDS011;1404;49.650;8.574;2022-09-21T08:17:09;3.57;;;3.13;;
2792;SDS011;1404;49.650;8.574;2022-09-21T08:19:35;3.00;;;2.70;;
2792;SDS011;1404;49.650;8.574;2022-09-21T08:22:01;3.83;;;1.83;;
2792;SDS011;1404;49.650;8.574;2022-09-21T08:24:27;2.33;;;2.13;;
2792;SDS011;1404;49.650;8.574;2022-09-21T08:26:55;1.97;;;1.70;;
2792;SDS011;1404;49.650;8.574;2022-09-21T08:29:22;2.50;;;1.87;;
2792;SDS011;1404;49.650;8.574;2022-09-21T08:31:48;1.60;;;1.50;;
2792;SDS011;1404;49.650;8.574;2022-09-21T08:34:14;1.53;;;1.40;;
2792;SDS011;1404;49.650;8.574;2022-09-21T08:36:40;1.10;;;1.00;;
2792;SDS011;1404;49.650;8.574;2022-09-21T08:39:07;2.93;;;2.30;;
2792;SDS011;1404;49.650;8.574;2022-09-21T08:44:18;3.27;;;1.30;;
2792;SDS011;1404;49.650;8.574;2022-09-21T08:46:47;1.07;;;1.00;;
2792;SDS011;1404;49.650;8.574;2022-09-21T08:49:16;1.40;;;1.30;;
2792;SDS011;1404;49.650;8.574;2022-09-21T08:52:04;1.13;;;1.03;;
2792;SDS011;1404;49.650;8.574;2022-09-21T08:56:56;1.80;;;1.63;;
2792;SDS011;1404;49.650;8.574;2022-09-21T08:59:22;2.50;;;1.63;;
2792;SDS011;1404;49.650;8.574;2022-09-21T09:02:06;2.40;;;1.70;;
2792;SDS011;1404;49.650;8.574;2022-09-21T09:07:21;1.47;;;1.37;;
2792;SDS011;1404;49.650;8.574;2022-09-21T09:18:19;1.03;;;0.47;;
2792;SDS011;1404;49.650;8.574;2022-09-21T09:20:47;0.80;;;0.60;;
2792;SDS011;1404;49.650;8.574;2022-09-21T09:25:43;0.93;;;0.83;;
2792;SDS011;1404;49.650;8.574;2022-09-21T09:28:16;0.70;;;0.57;;
2792;SDS011;1404;49.650;8.574;2022-09-21T09:30:45;2.20;;;1.43;;
2792;SDS011;1404;49.650;8.574;2022-09-21T09:33:22;0.80;;;0.60;;
2792;SDS011;1404;49.650;8.574;2022-09-21T09:48:47;1.47;;;1.07;;
2792;SDS011;1404;49.650;8.574;2022-09-21T09:51:14;0.70;;;0.50;;
2792;SDS011;1404;49.650;8.574;2022-09-21T09:53:42;1.00;;;0.90;;
2792;SDS011;1404;49.650;8.574;2022-09-21T09:56:08;1.70;;;1.20;;
2792;SDS011;1404;49.650;8.574;2022-09-21T09:58:48;1.83;;;1.33;;
2792;SDS011;1404;49.650;8.574;2022-09-21T10:01:35;0.70;;;0.50;;
2792;SDS011;1404;49.650;8.574;2022-09-21T10:04:05;0.93;;;0.70;;
2792;SDS011;1404;49.650;8.574;2022-09-21T10:06:32;0.80;;;0.63;;
2792;SDS011;1404;49.650;8.574;2022-09-21T10:08:59;0.80;;;0.60;;
2792;SDS011;1404;49.650;8.574;2022-09-21T10:11:32;0.80;;;0.63;;
2792;SDS011;1404;49.650;8.574;2022-09-21T10:14:06;0.90;;;0.70;;
2792;SDS011;1404;49.650;8.574;2022-09-21T10:16:32;0.80;;;0.80;;
2792;SDS011;1404;49.650;8.574;2022-09-21T10:19:04;0.87;;;0.60;;
2792;SDS011;1404;49.650;8.574;2022-09-21T10:21:38;0.73;;;0.50;;
2792;SDS011;1404;49.650;8.574;2022-09-21T10:32:01;1.00;;;0.60;;
2792;SDS011;1404;49.650;8.574;2022-09-21T10:34:28;0.90;;;0.40;;
2792;SDS011;1404;49.650;8.574;2022-09-21T10:36:55;0.70;;;0.50;;
2792;SDS011;1404;49.650;8.574;2022-09-21T10:39:23;0.60;;;0.40;;
2792;SDS011;1404;49.650;8.574;2022-09-21T10:47:12;1.57;;;0.43;;
2792;SDS011;1404;49.650;8.574;2022-09-21T10:49:42;1.17;;;0.60;;
2792;SDS011;1404;49.650;8.574;2022-09-21T10:52:08;0.60;;;0.40;;
2792;SDS011;1404;49.650;8.574;2022-09-21T10:54:34;1.00;;;0.40;;
2792;SDS011;1404;49.650;8.574;2022-09-21T10:57:02;0.60;;;0.53;;
2792;SDS011;1404;49.650;8.574;2022-09-21T10:59:30;0.70;;;0.40;;
2792;SDS011;1404;49.650;8.574;2022-09-21T11:01:57;0.60;;;0.50;;
2792;SDS011;1404;49.650;8.574;2022-09-21T11:09:38;0.70;;;0.50;;
2792;SDS011;1404;49.650;8.574;2022-09-21T11:14:40;0.60;;;0.50;;
2792;SDS011;1404;49.650;8.574;2022-09-21T11:17:08;0.60;;;0.37;;
2792;SDS011;1404;49.650;8.574;2022-09-21T11:24:44;0.60;;;0.60;;
2792;SDS011;1404;49.650;8.574;2022-09-21T11:27:24;0.80;;;0.40;;
2792;SDS011;1404;49.650;8.574;2022-09-21T11:34:49;0.60;;;0.43;;
2792;SDS011;1404;49.650;8.574;2022-09-21T11:37:29;0.70;;;0.53;;
2792;SDS011;1404;49.650;8.574;2022-09-21T11:40:11;0.90;;;0.47;;
2792;SDS011;1404;49.650;8.574;2022-09-21T11:45:24;0.70;;;0.67;;
2792;SDS011;1404;49.650;8.574;2022-09-21T11:48:02;0.70;;;0.50;;
2792;SDS011;1404;49.650;8.574;2022-09-21T11:54:04;0.60;;;0.50;;
2792;SDS011;1404;49.650;8.574;2022-09-21T11:58:51;0.60;;;0.40;;
2792;SDS011;1404;49.650;8.574;2022-09-21T12:04:30;0.70;;;0.50;;
2792;SDS011;1404;49.650;8.574;2022-09-21T12:07:07;0.60;;;0.40;;
2792;SDS011;1404;49.650;8.574;2022-09-21T12:14:50;0.60;;;0.40;;
2792;SDS011;1404;49.650;8.574;2022-09-21T12:25:04;0.60;;;0.40;;
2792;SDS011;1404;49.650;8.574;2022-09-21T12:27:38;0.80;;;0.50;;
2792;SDS011;1404;49.650;8.574;2022-09-21T12:32:36;0.67;;;0.40;;
2792;SDS011;1404;49.650;8.574;2022-09-21T12:35:05;0.60;;;0.40;;
2792;SDS011;1404;49.650;8.574;2022-09-21T12:37:46;0.60;;;0.50;;
2792;SDS011;1404;49.650;8.574;2022-09-21T12:40:24;0.60;;;0.47;;
2792;SDS011;1404;49.650;8.574;2022-09-21T12:43:06;0.60;;;0.40;;
2792;SDS011;1404;49.650;8.574;2022-09-21T12:45:40;0.60;;;0.40;;
2792;SDS011;1404;49.650;8.574;2022-09-21T12:50:38;0.70;;;0.33;;
2792;SDS011;1404;49.650;8.574;2022-09-21T12:53:05;0.60;;;0.40;;
2792;SDS011;1404;49.650;8.574;2022-09-21T13:08:37;0.60;;;0.40;;
2792;SDS011;1404;49.650;8.574;2022-09-21T13:11:05;0.63;;;0.37;;
2792;SDS011;1404;49.650;8.574;2022-09-21T13:13:33;0.60;;;0.30;;
2792;SDS011;1404;49.650;8.574;2022-09-21T13:15:59;0.70;;;0.40;;
2792;SDS011;1404;49.650;8.574;2022-09-21T13:20:59;0.77;;;0.47;;
2792;SDS011;1404;49.650;8.574;2022-09-21T13:26:06;0.60;;;0.37;;
2792;SDS011;1404;49.650;8.574;2022-09-21T13:36:31;1.07;;;0.50;;
2792;SDS011;1404;49.650;8.574;2022-09-21T13:39:14;0.87;;;0.30;;
2792;SDS011;1404;49.650;8.574;2022-09-21T13:41:41;0.60;;;0.40;;
2792;SDS011;1404;49.650;8.574;2022-09-21T13:51:41;0.60;;;0.30;;
2792;SDS011;1404;49.650;8.574;2022-09-21T13:54:14;0.60;;;0.40;;
2792;SDS011;1404;49.650;8.574;2022-09-21T13:56:41;0.60;;;0.40;;
2792;SDS011;1404;49.650;8.574;2022-09-21T13:59:16;1.43;;;0.40;;
2792;SDS011;1404;49.650;8.574;2022-09-21T14:01:44;1.20;;;0.50;;
2792;SDS011;1404;49.650;8.574;2022-09-21T14:04:15;1.10;;;0.50;;
2792;SDS011;1404;49.650;8.574;2022-09-21T14:06:43;0.60;;;0.40;;
2792;SDS011;1404;49.650;8.574;2022-09-21T14:09:20;0.60;;;0.30;;
2792;SDS011;1404;49.650;8.574;2022-09-21T14:11:51;0.60;;;0.30;;
2792;SDS011;1404;49.650;8.574;2022-09-21T14:16:51;0.60;;;0.30;;
2792;SDS011;1404;49.650;8.574;2022-09-21T14:24:35;0.60;;;0.30;;
2792;SDS011;1404;49.650;8.574;2022-09-21T14:27:12;0.63;;;0.40;;
2792;SDS011;1404;49.650;8.574;2022-09-21T14:29:50;0.60;;;0.37;;
2792;SDS011;1404;49.650;8.574;2022-09-21T14:32:22;0.50;;;0.30;;
2792;SDS011;1404;49.650;8.574;2022-09-21T14:34:49;0.60;;;0.30;;
2792;SDS011;1404;49.650;8.574;2022-09-21T14:37:36;0.60;;;0.40;;
2792;SDS011;1404;49.650;8.574;2022-09-21T14:40:05;0.50;;;0.30;;
2792;SDS011;1404;49.650;8.574;2022-09-21T14:42:41;0.50;;;0.30;;
2792;SDS011;1404;49.650;8.574;2022-09-21T14:45:09;1.23;;;0.40;;
2792;SDS011;1404;49.650;8.574;2022-09-21T14:48:22;1.93;;;1.27;;
2792;SDS011;1404;49.650;8.574;2022-09-21T15:00:53;0.60;;;0.40;;
2792;SDS011;1404;49.650;8.574;2022-09-21T15:06:39;0.60;;;0.50;;
2792;SDS011;1404;49.650;8.574;2022-09-21T15:11:51;0.50;;;0.30;;
2792;SDS011;1404;49.650;8.574;2022-09-21T15:14:29;0.60;;;0.30;;
2792;SDS011;1404;49.650;8.574;2022-09-21T15:16:59;0.60;;;0.40;;
2792;SDS011;1404;49.650;8.574;2022-09-21T15:19:32;0.50;;;0.40;;
2792;SDS011;1404;49.650;8.574;2022-09-21T15:22:17;1.40;;;0.60;;
2792;SDS011;1404;49.650;8.574;2022-09-21T15:24:57;0.50;;;0.30;;
2792;SDS011;1404;49.650;8.574;2022-09-21T15:27:29;0.60;;;0.40;;
2792;SDS011;1404;49.650;8.574;2022-09-21T15:29:57;0.50;;;0.30;;
2792;SDS011;1404;49.650;8.574;2022-09-21T15:32:32;0.60;;;0.30;;
2792;SDS011;1404;49.650;8.574;2022-09-21T15:35:00;0.77;;;0.43;;
2792;SDS011;1404;49.650;8.574;2022-09-21T15:37:27;0.60;;;0.30;;
2792;SDS011;1404;49.650;8.574;2022-09-21T15:40:00;0.60;;;0.40;;
2792;SDS011;1404;49.650;8.574;2022-09-21T15:42:26;0.60;;;0.30;;
2792;SDS011;1404;49.650;8.574;2022-09-21T15:45:00;1.43;;;0.40;;
2792;SDS011;1404;49.650;8.574;2022-09-21T15:47:30;0.60;;;0.40;;
2792;SDS011;1404;49.650;8.574;2022-09-21T15:49:58;0.60;;;0.40;;
2792;SDS011;1404;49.650;8.574;2022-09-21T15:52:37;0.50;;;0.30;;
2792;SDS011;1404;49.650;8.574;2022-09-21T15:55:10;0.80;;;0.40;;
2792;SDS011;1404;49.650;8.574;2022-09-21T15:57:40;0.50;;;0.30;;
2792;SDS011;1404;49.650;8.574;2022-09-21T16:05:21;0.73;;;0.40;;
2792;SDS011;1404;49.650;8.574;2022-09-21T16:07:49;0.57;;;0.40;;
2792;SDS011;1404;49.650;8.574;2022-09-21T16:13:04;0.60;;;0.40;;
2792;SDS011;1404;49.650;8.574;2022-09-21T16:16:05;0.60;;;0.40;;
2792;SDS011;1404;49.650;8.574;2022-09-21T16:21:07;0.60;;;0.40;;
2792;SDS011;1404;49.650;8.574;2022-09-21T16:23:33;0.60;;;0.40;;
2792;SDS011;1404;49.650;8.574;2022-09-21T16:26:01;1.03;;;0.47;;
2792;SDS011;1404;49.650;8.574;2022-09-21T16:28:28;0.60;;;0.33;;
2792;SDS011;1404;49.650;8.574;2022-09-21T16:30:55;0.60;;;0.47;;
2792;SDS011;1404;49.650;8.574;2022-09-21T16:33:42;0.60;;;0.40;;
2792;SDS011;1404;49.650;8.574;2022-09-21T16:38:47;0.50;;;0.30;;
2792;SDS011;1404;49.650;8.574;2022-09-21T16:41:17;0.60;;;0.40;;
2792;SDS011;1404;49.650;8.574;2022-09-21T16:43:44;0.67;;;0.50;;
2792;SDS011;1404;49.650;8.574;2022-09-21T16:46:10;1.83;;;0.40;;
2792;SDS011;1404;49.650;8.574;2022-09-21T16:48:37;2.50;;;0.40;;
2792;SDS011;1404;49.650;8.574;2022-09-21T16:51:04;0.60;;;0.40;;
2792;SDS011;1404;49.650;8.574;2022-09-21T16:53:30;0.60;;;0.40;;
2792;SDS011;1404;49.650;8.574;2022-09-21T16:55:56;0.67;;;0.40;;
2792;SDS011;1404;49.650;8.574;2022-09-21T16:58:22;0.50;;;0.30;;
2792;SDS011;1404;49.650;8.574;2022-09-21T17:00:50;0.80;;;0.70;;
2792;SDS011;1404;49.650;8.574;2022-09-21T17:03:17;0.60;;;0.40;;
2792;SDS011;1404;49.650;8.574;2022-09-21T17:05:43;1.67;;;0.40;;
2792;SDS011;1404;49.650;8.574;2022-09-21T17:08:09;0.60;;;0.50;;
2792;SDS011;1404;49.650;8.574;2022-09-21T17:10:36;0.60;;;0.40;;
2792;SDS011;1404;49.650;8.574;2022-09-21T17:13:03;0.90;;;0.50;;
2792;SDS011;1404;49.650;8.574;2022-09-21T17:15:31;0.80;;;0.43;;
2792;SDS011;1404;49.650;8.574;2022-09-21T17:17:58;1.10;;;0.70;;
2792;SDS011;1404;49.650;8.574;2022-09-21T17:22:56;0.90;;;0.47;;
2792;SDS011;1404;49.650;8.574;2022-09-21T17:25:22;0.60;;;0.57;;
2792;SDS011;1404;49.650;8.574;2022-09-21T17:27:48;0.80;;;0.60;;
2792;SDS011;1404;49.650;8.574;2022-09-21T17:30:16;0.57;;;0.43;;
2792;SDS011;1404;49.650;8.574;2022-09-21T17:32:44;0.70;;;0.43;;
2792;SDS011;1404;49.650;8.574;2022-09-21T17:37:46;1.17;;;0.80;;
2792;SDS011;1404;49.650;8.574;2022-09-21T17:40:12;0.90;;;0.90;;
2792;SDS011;1404;49.650;8.574;2022-09-21T17:42:39;0.70;;;0.40;;
2792;SDS011;1404;49.650;8.574;2022-09-21T17:47:37;0.87;;;0.50;;
2792;SDS011;1404;49.650;8.574;2022-09-21T17:52:33;0.87;;;0.50;;
2792;SDS011;1404;49.650;8.574;2022-09-21T17:55:17;0.80;;;0.60;;
2792;SDS011;1404;49.650;8.574;2022-09-21T17:57:49;0.70;;;0.53;;
2792;SDS011;1404;49.650;8.574;2022-09-21T18:00:21;0.50;;;0.30;;
2792;SDS011;1404;49.650;8.574;2022-09-21T18:02:48;0.70;;;0.60;;
2792;SDS011;1404;49.650;8.574;2022-09-21T18:07:41;0.80;;;0.40;;
2792;SDS011;1404;49.650;8.574;2022-09-21T18:10:07;2.03;;;1.00;;
2792;SDS011;1404;49.650;8.574;2022-09-21T18:17:42;1.87;;;0.60;;
2792;SDS011;1404;49.650;8.574;2022-09-21T18:25:15;3.73;;;1.10;;
2792;SDS011;1404;49.650;8.574;2022-09-21T18:27:42;3.80;;;1.63;;
2792;SDS011;1404;49.650;8.574;2022-09-21T18:30:12;1.67;;;0.90;;
2792;SDS011;1404;49.650;8.574;2022-09-21T18:53:01;1.37;;;0.80;;
2792;SDS011;1404;49.650;8.574;2022-09-21T18:55:30;2.07;;;0.70;;
2792;SDS011;1404;49.650;8.574;2022-09-21T18:57:57;0.80;;;0.50;;
2792;SDS011;1404;49.650;8.574;2022-09-21T19:00:24;0.80;;;0.57;;
2792;SDS011;1404;49.650;8.574;2022-09-21T19:03:19;0.70;;;0.70;;
2792;SDS011;1404;49.650;8.574;2022-09-21T19:05:48;0.93;;;0.50;;
2792;SDS011;1404;49.650;8.574;2022-09-21T19:08:18;1.77;;;0.70;;
2792;SDS011;1404;49.650;8.574;2022-09-21T19:10:48;1.30;;;0.87;;
2792;SDS011;1404;49.650;8.574;2022-09-21T19:18:39;1.00;;;0.67;;
2792;SDS011;1404;49.650;8.574;2022-09-21T19:26:19;0.70;;;0.50;;
2792;SDS011;1404;49.650;8.574;2022-09-21T19:31:32;0.83;;;0.60;;
2792;SDS011;1404;49.650;8.574;2022-09-21T19:34:00;0.60;;;0.50;;
2792;SDS011;1404;49.650;8.574;2022-09-21T19:36:33;1.50;;;0.67;;
2792;SDS011;1404;49.650;8.574;2022-09-21T19:38:59;0.60;;;0.50;;
2792;SDS011;1404;49.650;8.574;2022-09-21T19:41:30;1.27;;;0.60;;